Lingling, China
Current Conditions -  °F | °C
As of 6:00 AM on Friday 24 Oct 2014 (Local Time) from ZGKL Reporting Station
Haze Haze  
Wind Chill: 57°   Ceiling: Unl
Heat Index: 57°   Visibility: 2.1mi
Dew Point: 57°   Wind: 2mph
Humidity: 100%   Direction: 350°N
Pressure: 30.03"   Gusts: NA
Location:  26.23°N, 111.62°E
Report Text: ZGKL 232200Z 35001MPS 3500 BR NSC 14/14 Q1017 NOSIG
Loading
Personal Weather Stations






























Interactive Weather Map
Tropical Storm Tracking
New forecast layout! Learn more

10-Day Weather Forecast

Advertisements
Track Severe Weather on mobile